Portada
METAR-TAF:

METAR-TAF

Aeroports :

Al-Hassà, Aràbia Saudita

latitud: 25-18N, longitud: 049-29E, altitud: 179 m

Observació

L'informe es va fer fa 1 hora i 3 minuts, a les 23:00 UTC
Vent 10 kt del Oest
Temperatura 11°C
Humitat 54%
Pressió 1020 hPa
Visibilitat 10 km o més
sense núvols per sota de 1500 mi sense presència de cumulonimbus.

METAR: OEAH 212300Z 28010KT CAVOK 11/02 Q1020 NOSIG

Hora: 03:03 (00:03 UTC)

Pronòstic

L'informe es va fer fa 1 hora i 3 minuts, a les 23:00 UTC
Pronòstic vàlid del 22 a les 00 UTC al 23 a les 06 UTC
Vent 5 kt del Nord/Nord-Oest amb ràfegues de 15 kt
Visibilitat: 6000 m

TAF: OEAH 212300Z 2200/2306 34005G15KT 6000 NSC

Observacions i pronòstics meteorològics de més de 4000 aeroports (METAR i TAF).

Les estacions disponibles són els punts grocs i vermells al mapa.

Posi el ratolí al punt desitjat per veure el nom de l'estació.

Feu clic per veure les observacions i els pronòstics meteorològics.

Per canviar el mapa: feu clic els botons verds amb una creu de color negre per apropar; al botó verd amb un guió per allunyar la imatge; o en les fletxes verdes per a mapes adjacents.


METAR-TAF: